Scott AFB/Midamerica Airport
KBLV : now visible

Airfield :











YOU CAN JOIN US ON...

 
LOGIN :

Register | Disclaimer

   EN    FR    IT 

 









Legend :    VFR   Marginal VFR   IFR   Intensive IFR   Very Intensive IFR
Visi :
Ceiling :
>= 8 km
>= 3000ft
5 to 8 km
1000 to 3000 ft
1500m to 5 km
500 to 1000 ft
800 to 1500m
200 to 500 ft
< 800m
< 200 ft
Symbols :   Thunderstorms  Fog  Heavy snow  Heavy precipitations  Wind > 20 kt







- Airport Elevation : 459 ft


KBLV - Scott AFB/Midamerica

CURRENT METAR :
  • 201156Z 14003KT 9SM OVC005 02/00 A2986 RMK AO2A SLPNO ALSTG ESTMD 60047 70069 58010 $

EXPIRED METARs :
  • 201056Z 09003KT 10SM OVC006 01/00 A2986 RMK AO2A SLPNO ALSTG ESTMD $
  • 200956Z 11003KT 10SM OVC006 01/00 A2990 RMK AO2A DZE0856 SLPNO ALSTG ESTMD P0002 $
  • 200912Z 09004KT 10SM OVC006 01/00 A2989 RMK AO2A DZE0856 CIG 005 RWY32L SLPNO ALSTG ESTMD $

TAF TAF KBLV
Valid from the 20 at 08:00 until the 21 at 14:00 UTC


200800Z 2008/2114 10012KT 8000 -RA OVC006 520059 520954 QNH2988INS
TEMPO 2008/2009 6000 -FZRA OVC005 690001
BECMG 2012/2013 12006KT 4800 -RA BR OVC005 510053 510703 QNH2981INS
BECMG 2020/2021 24010G15KT 9999 NSW BKN020 510043 510804 QNH2978INS
BECMG 2023/2024 24006KT 9999 FEW012 510053 QNH2984INS TX07/2021Z TNM01/2108Z
KZKC FIR / North America



MET'MAP, your aeronautical weather chart ! - Copyright ORBIFLY December 2007 - Disclaimer

ORBIFLY MET'MAP TEAM :

Programming & Development : Alexandra Zaïnal
Concept & Development : Baudouin d'Aumeries
Co-Development & Prog : Marc-Olivier Méhu
Technical & hardware support : Manuel Goepfert

Contact : metmap@orbifly.com




SOURCES & CREDITS :

   NOAA       Earth
Advisory